sensor_id;sensor_type;location;lat;lon;timestamp;pressure;altitude;pressure_sealevel;temperature;humidity
20825;BME280;10573;50.936;6.978;2023-03-03T00:00:46;101785.69;;;4.40;65.79
20825;BME280;10573;50.936;6.978;2023-03-03T00:03:16;101784.53;;;4.63;65.48
20825;BME280;10573;50.936;6.978;2023-03-03T00:05:42;101787.94;;;4.49;65.43
20825;BME280;10573;50.936;6.978;2023-03-03T00:08:08;101796.91;;;4.50;65.66
20825;BME280;10573;50.936;6.978;2023-03-03T00:10:34;101799.19;;;4.58;65.61
20825;BME280;10573;50.936;6.978;2023-03-03T00:13:00;101789.38;;;4.90;64.15
20825;BME280;10573;50.936;6.978;2023-03-03T00:15:25;101788.16;;;4.62;65.11
20825;BME280;10573;50.936;6.978;2023-03-03T00:17:52;101790.41;;;4.54;64.88
20825;BME280;10573;50.936;6.978;2023-03-03T00:20:38;101803.34;;;4.30;66.42
20825;BME280;10573;50.936;6.978;2023-03-03T00:23:16;101791.56;;;4.66;65.05
20825;BME280;10573;50.936;6.978;2023-03-03T00:25:44;101787.97;;;4.83;64.50
20825;BME280;10573;50.936;6.978;2023-03-03T00:28:31;101789.38;;;4.57;64.98
20825;BME280;10573;50.936;6.978;2023-03-03T00:30:59;101801.25;;;4.35;65.70
20825;BME280;10573;50.936;6.978;2023-03-03T00:33:32;101801.97;;;4.21;66.01
20825;BME280;10573;50.936;6.978;2023-03-03T00:36:21;101794.53;;;4.26;66.02
20825;BME280;10573;50.936;6.978;2023-03-03T00:38:48;101811.59;;;3.90;67.10
20825;BME280;10573;50.936;6.978;2023-03-03T00:41:23;101804.50;;;4.24;66.24
20825;BME280;10573;50.936;6.978;2023-03-03T00:43:50;101804.00;;;3.98;66.45
20825;BME280;10573;50.936;6.978;2023-03-03T00:46:21;101803.06;;;3.99;66.50
20825;BME280;10573;50.936;6.978;2023-03-03T00:48:49;101820.13;;;4.17;66.41
20825;BME280;10573;50.936;6.978;2023-03-03T00:51:29;101817.38;;;4.19;66.37
20825;BME280;10573;50.936;6.978;2023-03-03T00:53:56;101813.19;;;3.94;67.09
20825;BME280;10573;50.936;6.978;2023-03-03T00:56:22;101810.06;;;4.21;66.46
20825;BME280;10573;50.936;6.978;2023-03-03T00:58:48;101813.53;;;4.06;66.65
20825;BME280;10573;50.936;6.978;2023-03-03T01:01:15;101808.09;;;3.88;67.28
20825;BME280;10573;50.936;6.978;2023-03-03T01:03:41;101806.81;;;3.78;67.38
20825;BME280;10573;50.936;6.978;2023-03-03T01:06:06;101806.81;;;3.78;67.35
20825;BME280;10573;50.936;6.978;2023-03-03T01:08:32;101801.78;;;4.07;67.01
20825;BME280;10573;50.936;6.978;2023-03-03T01:11:02;101808.94;;;4.08;66.59
20825;BME280;10573;50.936;6.978;2023-03-03T01:13:31;101813.41;;;4.26;65.87
20825;BME280;10573;50.936;6.978;2023-03-03T01:15:58;101818.84;;;4.07;66.31
20825;BME280;10573;50.936;6.978;2023-03-03T01:18:24;101814.81;;;4.33;65.58
20825;BME280;10573;50.936;6.978;2023-03-03T01:20:49;101820.53;;;3.91;66.42
20825;BME280;10573;50.936;6.978;2023-03-03T01:23:15;101825.16;;;3.89;66.52
20825;BME280;10573;50.936;6.978;2023-03-03T01:25:40;101823.09;;;4.30;65.58
20825;BME280;10573;50.936;6.978;2023-03-03T01:28:06;101823.81;;;3.97;66.47
20825;BME280;10573;50.936;6.978;2023-03-03T01:30:32;101824.16;;;4.09;66.02
20825;BME280;10573;50.936;6.978;2023-03-03T01:32:57;101830.13;;;3.79;66.64
20825;BME280;10573;50.936;6.978;2023-03-03T01:35:23;101832.22;;;3.91;66.46
20825;BME280;10573;50.936;6.978;2023-03-03T01:37:49;101824.78;;;3.96;66.31
20825;BME280;10573;50.936;6.978;2023-03-03T01:40:20;101827.19;;;3.83;66.88
20825;BME280;10573;50.936;6.978;2023-03-03T01:42:46;101826.50;;;3.61;67.76
20825;BME280;10573;50.936;6.978;2023-03-03T01:45:18;101828.31;;;3.60;67.40
20825;BME280;10573;50.936;6.978;2023-03-03T01:50:33;101829.72;;;3.86;66.96
20825;BME280;10573;50.936;6.978;2023-03-03T01:53:01;101836.00;;;4.24;65.77
20825;BME280;10573;50.936;6.978;2023-03-03T01:55:33;101824.94;;;4.11;65.77
20825;BME280;10573;50.936;6.978;2023-03-03T01:58:36;101828.72;;;3.89;66.48
20825;BME280;10573;50.936;6.978;2023-03-03T02:01:08;101830.25;;;3.76;66.77
20825;BME280;10573;50.936;6.978;2023-03-03T02:03:36;101825.16;;;3.89;66.49
20825;BME280;10573;50.936;6.978;2023-03-03T02:06:23;101823.28;;;3.52;67.62
20825;BME280;10573;50.936;6.978;2023-03-03T02:09:51;101827.16;;;3.47;67.50
20825;BME280;10573;50.936;6.978;2023-03-03T02:11:46;101833.47;;;3.46;67.89
20825;BME280;10573;50.936;6.978;2023-03-03T02:14:13;101832.38;;;3.50;67.88
20825;BME280;10573;50.936;6.978;2023-03-03T02:16:39;101837.97;;;3.26;68.57
20825;BME280;10573;50.936;6.978;2023-03-03T02:19:09;101835.78;;;3.15;69.12
20825;BME280;10573;50.936;6.978;2023-03-03T02:21:37;101842.31;;;3.10;68.68
20825;BME280;10573;50.936;6.978;2023-03-03T02:26:36;101836.03;;;3.30;68.41
20825;BME280;10573;50.936;6.978;2023-03-03T02:29:03;101834.84;;;2.77;69.98
20825;BME280;10573;50.936;6.978;2023-03-03T02:31:30;101837.94;;;2.67;70.24
20825;BME280;10573;50.936;6.978;2023-03-03T02:33:55;101836.97;;;2.68;70.55
20825;BME280;10573;50.936;6.978;2023-03-03T02:36:24;101845.59;;;2.77;70.44
20825;BME280;10573;50.936;6.978;2023-03-03T02:39:01;101839.91;;;2.42;71.09
20825;BME280;10573;50.936;6.978;2023-03-03T02:41:33;101841.72;;;2.41;71.15
20825;BME280;10573;50.936;6.978;2023-03-03T02:44:03;101839.81;;;2.45;70.88
20825;BME280;10573;50.936;6.978;2023-03-03T02:46:33;101842.78;;;2.59;70.83
20825;BME280;10573;50.936;6.978;2023-03-03T02:48:58;101841.13;;;2.55;71.08
20825;BME280;10573;50.936;6.978;2023-03-03T02:51:24;101839.25;;;2.37;71.17
20825;BME280;10573;50.936;6.978;2023-03-03T02:53:49;101854.19;;;2.44;70.82
20825;BME280;10573;50.936;6.978;2023-03-03T02:56:15;101855.84;;;2.26;71.34
20825;BME280;10573;50.936;6.978;2023-03-03T02:58:40;101858.28;;;2.10;71.55
20825;BME280;10573;50.936;6.978;2023-03-03T03:01:05;101849.94;;;2.16;71.57
20825;BME280;10573;50.936;6.978;2023-03-03T03:03:31;101853.03;;;2.07;71.92
20825;BME280;10573;50.936;6.978;2023-03-03T03:05:56;101854.28;;;1.98;72.08
20825;BME280;10573;50.936;6.978;2023-03-03T03:08:22;101862.41;;;2.18;71.76
20825;BME280;10573;50.936;6.978;2023-03-03T03:10:47;101859.09;;;2.34;71.15
20825;BME280;10573;50.936;6.978;2023-03-03T03:13:13;101865.19;;;2.38;71.47
20825;BME280;10573;50.936;6.978;2023-03-03T03:15:39;101857.19;;;2.36;70.99
20825;BME280;10573;50.936;6.978;2023-03-03T03:18:05;101849.94;;;2.38;71.52
20825;BME280;10573;50.936;6.978;2023-03-03T03:20:35;101855.47;;;2.35;71.14
20825;BME280;10573;50.936;6.978;2023-03-03T03:23:00;101859.81;;;2.38;70.97
20825;BME280;10573;50.936;6.978;2023-03-03T03:25:26;101857.84;;;2.63;70.57
20825;BME280;10573;50.936;6.978;2023-03-03T03:27:51;101860.22;;;2.28;71.07
20825;BME280;10573;50.936;6.978;2023-03-03T03:30:17;101864.97;;;2.22;71.73
20825;BME280;10573;50.936;6.978;2023-03-03T03:32:45;101859.84;;;2.58;70.74
20825;BME280;10573;50.936;6.978;2023-03-03T03:35:11;101862.22;;;2.23;71.65
20825;BME280;10573;50.936;6.978;2023-03-03T03:37:38;101865.84;;;2.22;71.63
20825;BME280;10573;50.936;6.978;2023-03-03T03:40:04;101869.50;;;2.42;71.34
20825;BME280;10573;50.936;6.978;2023-03-03T03:42:30;101869.94;;;2.31;71.21
20825;BME280;10573;50.936;6.978;2023-03-03T03:44:55;101874.84;;;2.43;71.06
20825;BME280;10573;50.936;6.978;2023-03-03T03:47:21;101890.75;;;2.48;71.08
20825;BME280;10573;50.936;6.978;2023-03-03T03:49:46;101888.38;;;2.40;71.12
20825;BME280;10573;50.936;6.978;2023-03-03T03:52:12;101884.28;;;2.31;71.90
20825;BME280;10573;50.936;6.978;2023-03-03T03:54:37;101881.78;;;2.27;71.78
20825;BME280;10573;50.936;6.978;2023-03-03T03:57:02;101884.16;;;2.34;71.61
20825;BME280;10573;50.936;6.978;2023-03-03T03:59:28;101879.69;;;2.33;71.48
20825;BME280;10573;50.936;6.978;2023-03-03T04:01:53;101886.53;;;2.20;72.33
20825;BME280;10573;50.936;6.978;2023-03-03T04:04:19;101885.47;;;2.24;72.13
20825;BME280;10573;50.936;6.978;2023-03-03T04:06:44;101886.66;;;2.39;71.82
20825;BME280;10573;50.936;6.978;2023-03-03T04:09:10;101887.91;;;2.53;71.54
20825;BME280;10573;50.936;6.978;2023-03-03T04:11:35;101883.66;;;2.67;70.88
20825;BME280;10573;50.936;6.978;2023-03-03T04:14:01;101882.13;;;2.82;69.84
20825;BME280;10573;50.936;6.978;2023-03-03T04:16:26;101885.94;;;2.56;70.65
20825;BME280;10573;50.936;6.978;2023-03-03T04:18:52;101887.72;;;2.98;69.56
20825;BME280;10573;50.936;6.978;2023-03-03T04:21:17;101886.34;;;2.88;69.58
20825;BME280;10573;50.936;6.978;2023-03-03T04:23:43;101892.69;;;2.66;69.94
20825;BME280;10573;50.936;6.978;2023-03-03T04:26:09;101892.06;;;2.80;69.74
20825;BME280;10573;50.936;6.978;2023-03-03T04:28:34;101892.19;;;2.57;70.06
20825;BME280;10573;50.936;6.978;2023-03-03T04:31:00;101885.91;;;2.35;71.01
20825;BME280;10573;50.936;6.978;2023-03-03T04:33:25;101887.16;;;2.69;70.38
20825;BME280;10573;50.936;6.978;2023-03-03T04:35:51;101896.31;;;2.65;69.92
20825;BME280;10573;50.936;6.978;2023-03-03T04:38:16;101901.13;;;2.57;70.48
20825;BME280;10573;50.936;6.978;2023-03-03T04:40:42;101901.81;;;2.62;70.26
20825;BME280;10573;50.936;6.978;2023-03-03T04:43:08;101893.59;;;2.45;70.52
20825;BME280;10573;50.936;6.978;2023-03-03T04:45:34;101886.22;;;2.50;70.93
20825;BME280;10573;50.936;6.978;2023-03-03T04:48:00;101899.53;;;2.74;69.88
20825;BME280;10573;50.936;6.978;2023-03-03T04:50:25;101902.22;;;2.53;70.32
20825;BME280;10573;50.936;6.978;2023-03-03T04:52:51;101903.59;;;2.63;70.24
20825;BME280;10573;50.936;6.978;2023-03-03T04:55:16;101907.75;;;2.71;70.18
20825;BME280;10573;50.936;6.978;2023-03-03T04:57:42;101906.09;;;2.24;71.15
20825;BME280;10573;50.936;6.978;2023-03-03T05:00:09;101919.84;;;2.16;71.21
20825;BME280;10573;50.936;6.978;2023-03-03T05:02:40;101914.84;;;2.51;70.58
20825;BME280;10573;50.936;6.978;2023-03-03T05:05:06;101912.47;;;2.21;70.83
20825;BME280;10573;50.936;6.978;2023-03-03T05:07:34;101913.66;;;2.58;69.87
20825;BME280;10573;50.936;6.978;2023-03-03T05:09:59;101921.53;;;2.18;70.87
20825;BME280;10573;50.936;6.978;2023-03-03T05:12:24;101922.13;;;2.69;69.77
20825;BME280;10573;50.936;6.978;2023-03-03T05:14:51;101914.22;;;2.87;68.74
20825;BME280;10573;50.936;6.978;2023-03-03T05:17:16;101926.56;;;2.71;68.77
20825;BME280;10573;50.936;6.978;2023-03-03T05:19:41;101937.97;;;2.55;69.64
20825;BME280;10573;50.936;6.978;2023-03-03T05:22:07;101937.59;;;2.20;70.09
20825;BME280;10573;50.936;6.978;2023-03-03T05:24:32;101935.13;;;2.15;70.73
20825;BME280;10573;50.936;6.978;2023-03-03T05:26:57;101936.69;;;2.21;71.01
20825;BME280;10573;50.936;6.978;2023-03-03T05:29:23;101935.88;;;2.63;69.52
20825;BME280;10573;50.936;6.978;2023-03-03T05:31:48;101939.72;;;2.56;70.04
20825;BME280;10573;50.936;6.978;2023-03-03T05:34:14;101930.50;;;2.84;69.34
20825;BME280;10573;50.936;6.978;2023-03-03T05:36:39;101938.47;;;2.65;69.20
20825;BME280;10573;50.936;6.978;2023-03-03T05:39:05;101945.03;;;2.80;68.90
20825;BME280;10573;50.936;6.978;2023-03-03T05:41:30;101935.47;;;2.73;68.84
20825;BME280;10573;50.936;6.978;2023-03-03T05:43:56;101949.47;;;2.81;69.05
20825;BME280;10573;50.936;6.978;2023-03-03T05:46:21;101950.75;;;2.50;69.69
20825;BME280;10573;50.936;6.978;2023-03-03T05:48:47;101950.50;;;2.56;69.27
20825;BME280;10573;50.936;6.978;2023-03-03T05:51:12;101947.50;;;2.84;69.25
20825;BME280;10573;50.936;6.978;2023-03-03T05:53:38;101959.19;;;2.63;68.65
20825;BME280;10573;50.936;6.978;2023-03-03T05:56:03;101951.69;;;2.49;69.43
20825;BME280;10573;50.936;6.978;2023-03-03T05:58:29;101949.59;;;2.35;70.04
20825;BME280;10573;50.936;6.978;2023-03-03T06:00:54;101951.00;;;2.44;70.38
20825;BME280;10573;50.936;6.978;2023-03-03T06:03:20;101947.63;;;2.61;70.05
20825;BME280;10573;50.936;6.978;2023-03-03T06:05:45;101950.13;;;2.21;70.21
20825;BME280;10573;50.936;6.978;2023-03-03T06:08:10;101952.09;;;2.60;70.04
20825;BME280;10573;50.936;6.978;2023-03-03T06:10:36;101957.03;;;2.28;70.42
20825;BME280;10573;50.936;6.978;2023-03-03T06:13:01;101956.25;;;2.69;69.65
20825;BME280;10573;50.936;6.978;2023-03-03T06:15:27;101964.41;;;2.88;68.78
20825;BME280;10573;50.936;6.978;2023-03-03T06:17:52;101966.63;;;2.56;69.62
20825;BME280;10573;50.936;6.978;2023-03-03T06:20:18;101958.50;;;2.35;69.88
20825;BME280;10573;50.936;6.978;2023-03-03T06:22:43;101963.63;;;2.86;68.88
20825;BME280;10573;50.936;6.978;2023-03-03T06:25:09;101958.69;;;2.53;69.23
20825;BME280;10573;50.936;6.978;2023-03-03T06:27:35;101967.31;;;2.61;68.89
20825;BME280;10573;50.936;6.978;2023-03-03T06:30:00;101957.50;;;2.38;69.98
20825;BME280;10573;50.936;6.978;2023-03-03T06:32:25;101958.50;;;2.58;69.31
20825;BME280;10573;50.936;6.978;2023-03-03T06:34:51;101968.03;;;2.87;68.93
20825;BME280;10573;50.936;6.978;2023-03-03T06:37:16;101967.88;;;2.69;68.84
20825;BME280;10573;50.936;6.978;2023-03-03T06:39:42;101979.00;;;2.60;69.44
20825;BME280;10573;50.936;6.978;2023-03-03T06:42:07;101983.66;;;2.57;69.25
20825;BME280;10573;50.936;6.978;2023-03-03T06:44:34;101984.69;;;2.97;68.68
20825;BME280;10573;50.936;6.978;2023-03-03T06:47:01;101990.63;;;2.83;68.89
20825;BME280;10573;50.936;6.978;2023-03-03T06:49:26;101997.53;;;2.90;68.78
20825;BME280;10573;50.936;6.978;2023-03-03T06:51:52;102009.38;;;2.86;68.78
20825;BME280;10573;50.936;6.978;2023-03-03T06:54:24;102012.56;;;2.51;69.16
20825;BME280;10573;50.936;6.978;2023-03-03T06:56:57;102017.91;;;2.29;70.12
20825;BME280;10573;50.936;6.978;2023-03-03T06:59:23;102016.31;;;2.69;69.85
20825;BME280;10573;50.936;6.978;2023-03-03T07:01:49;102017.03;;;2.51;69.46
20825;BME280;10573;50.936;6.978;2023-03-03T07:04:26;102023.03;;;3.02;68.81
20825;BME280;10573;50.936;6.978;2023-03-03T07:07:19;102022.03;;;3.05;68.28
20825;BME280;10573;50.936;6.978;2023-03-03T07:09:48;102025.88;;;2.55;69.43
20825;BME280;10573;50.936;6.978;2023-03-03T07:12:18;102027.53;;;2.81;68.75
20825;BME280;10573;50.936;6.978;2023-03-03T07:14:49;102019.34;;;3.05;68.34
20825;BME280;10573;50.936;6.978;2023-03-03T07:17:21;102033.38;;;2.46;68.65
20825;BME280;10573;50.936;6.978;2023-03-03T07:19:47;102023.69;;;2.64;69.29
20825;BME280;10573;50.936;6.978;2023-03-03T07:22:21;102025.94;;;2.97;68.64
20825;BME280;10573;50.936;6.978;2023-03-03T07:24:51;102033.38;;;2.91;68.64
20825;BME280;10573;50.936;6.978;2023-03-03T07:27:20;102038.97;;;2.86;68.21
20825;BME280;10573;50.936;6.978;2023-03-03T07:29:48;102042.31;;;2.91;68.31
20825;BME280;10573;50.936;6.978;2023-03-03T07:32:20;102037.63;;;3.39;66.85
20825;BME280;10573;50.936;6.978;2023-03-03T07:34:47;102045.31;;;3.06;67.70
20825;BME280;10573;50.936;6.978;2023-03-03T07:37:40;102044.75;;;2.77;68.50
20825;BME280;10573;50.936;6.978;2023-03-03T07:42:51;102040.09;;;2.80;68.65
20825;BME280;10573;50.936;6.978;2023-03-03T07:45:36;102056.88;;;2.65;68.86
20825;BME280;10573;50.936;6.978;2023-03-03T07:48:38;102055.41;;;2.34;69.49
20825;BME280;10573;50.936;6.978;2023-03-03T07:51:21;102050.06;;;2.78;69.30
20825;BME280;10573;50.936;6.978;2023-03-03T07:53:49;102053.00;;;2.94;68.10
20825;BME280;10573;50.936;6.978;2023-03-03T07:56:33;102057.47;;;3.36;67.16
20825;BME280;10573;50.936;6.978;2023-03-03T07:59:02;102059.53;;;3.52;66.61
20825;BME280;10573;50.936;6.978;2023-03-03T08:04:17;102070.56;;;3.87;65.57
20825;BME280;10573;50.936;6.978;2023-03-03T08:06:54;102069.81;;;3.83;64.74
20825;BME280;10573;50.936;6.978;2023-03-03T08:09:38;102066.69;;;2.88;66.96
20825;BME280;10573;50.936;6.978;2023-03-03T08:14:37;102073.03;;;3.50;66.17
20825;BME280;10573;50.936;6.978;2023-03-03T08:17:20;102072.28;;;3.26;65.80
20825;BME280;10573;50.936;6.978;2023-03-03T08:19:46;102074.69;;;2.90;67.29
20825;BME280;10573;50.936;6.978;2023-03-03T08:22:18;102079.25;;;3.10;67.43
20825;BME280;10573;50.936;6.978;2023-03-03T08:24:47;102079.78;;;3.40;66.71
20825;BME280;10573;50.936;6.978;2023-03-03T08:27:12;102078.97;;;3.79;65.42
20825;BME280;10573;50.936;6.978;2023-03-03T08:29:37;102089.81;;;3.57;65.76
20825;BME280;10573;50.936;6.978;2023-03-03T08:32:03;102085.25;;;3.39;66.25
20825;BME280;10573;50.936;6.978;2023-03-03T08:34:28;102084.56;;;3.54;65.71
20825;BME280;10573;50.936;6.978;2023-03-03T08:36:54;102095.56;;;3.70;65.68
20825;BME280;10573;50.936;6.978;2023-03-03T08:39:22;102092.44;;;3.38;65.62
20825;BME280;10573;50.936;6.978;2023-03-03T08:41:47;102105.59;;;3.46;65.71
20825;BME280;10573;50.936;6.978;2023-03-03T08:44:13;102096.31;;;3.74;65.47
20825;BME280;10573;50.936;6.978;2023-03-03T08:46:38;102100.59;;;3.98;64.62
20825;BME280;10573;50.936;6.978;2023-03-03T08:49:03;102104.56;;;3.06;66.07
20825;BME280;10573;50.936;6.978;2023-03-03T08:51:29;102117.03;;;3.51;66.16
20825;BME280;10573;50.936;6.978;2023-03-03T08:53:54;102105.34;;;3.73;65.31
20825;BME280;10573;50.936;6.978;2023-03-03T08:56:20;102105.75;;;3.21;66.31
20825;BME280;10573;50.936;6.978;2023-03-03T08:58:45;102103.28;;;3.36;66.06
20825;BME280;10573;50.936;6.978;2023-03-03T09:01:15;102104.19;;;3.58;65.68
20825;BME280;10573;50.936;6.978;2023-03-03T09:03:42;102108.84;;;3.75;64.47
20825;BME280;10573;50.936;6.978;2023-03-03T09:06:08;102115.50;;;3.23;66.08
20825;BME280;10573;50.936;6.978;2023-03-03T09:08:37;102114.78;;;3.83;65.07
20825;BME280;10573;50.936;6.978;2023-03-03T09:11:09;102119.75;;;3.72;65.00
20825;BME280;10573;50.936;6.978;2023-03-03T09:13:34;102114.38;;;3.29;65.63
20825;BME280;10573;50.936;6.978;2023-03-03T09:16:00;102120.50;;;3.32;65.31
20825;BME280;10573;50.936;6.978;2023-03-03T09:18:37;102122.28;;;3.54;65.53
20825;BME280;10573;50.936;6.978;2023-03-03T09:21:25;102123.78;;;4.02;64.28
20825;BME280;10573;50.936;6.978;2023-03-03T09:23:56;102130.38;;;3.54;65.25
20825;BME280;10573;50.936;6.978;2023-03-03T09:26:28;102121.44;;;3.31;65.18
20825;BME280;10573;50.936;6.978;2023-03-03T09:31:47;102121.50;;;3.73;64.72
20825;BME280;10573;50.936;6.978;2023-03-03T09:36:57;102136.97;;;4.29;63.79
20825;BME280;10573;50.936;6.978;2023-03-03T09:39:25;102131.47;;;3.91;63.81
20825;BME280;10573;50.936;6.978;2023-03-03T09:56:21;102142.47;;;4.07;63.52
20825;BME280;10573;50.936;6.978;2023-03-03T09:59:05;102154.94;;;3.89;63.23
20825;BME280;10573;50.936;6.978;2023-03-03T10:01:53;102156.13;;;4.02;63.28
20825;BME280;10573;50.936;6.978;2023-03-03T10:10:06;102159.91;;;4.19;62.57
20825;BME280;10573;50.936;6.978;2023-03-03T10:12:32;102159.47;;;4.49;62.49
20825;BME280;10573;50.936;6.978;2023-03-03T10:15:07;102158.28;;;4.35;62.46
20825;BME280;10573;50.936;6.978;2023-03-03T10:20:43;102159.81;;;4.41;64.64
20825;BME280;10573;50.936;6.978;2023-03-03T10:29:23;102155.59;;;4.15;62.47
20825;BME280;10573;50.936;6.978;2023-03-03T10:32:24;102163.75;;;4.13;63.27
20825;BME280;10573;50.936;6.978;2023-03-03T10:40:02;102161.22;;;4.50;62.24
20825;BME280;10573;50.936;6.978;2023-03-03T10:48:15;102160.56;;;4.45;62.12
20825;BME280;10573;50.936;6.978;2023-03-03T10:51:04;102152.91;;;5.12;60.59
20825;BME280;10573;50.936;6.978;2023-03-03T10:53:40;102152.06;;;5.46;59.93
20825;BME280;10573;50.936;6.978;2023-03-03T10:58:45;102150.03;;;5.15;59.34
20825;BME280;10573;50.936;6.978;2023-03-03T11:04:58;102164.38;;;5.34;59.77
20825;BME280;10573;50.936;6.978;2023-03-03T11:07:00;102159.56;;;4.66;60.21
20825;BME280;10573;50.936;6.978;2023-03-03T11:13:02;102158.38;;;5.47;59.45
20825;BME280;10573;50.936;6.978;2023-03-03T11:15:46;102159.97;;;6.21;58.05
20825;BME280;10573;50.936;6.978;2023-03-03T11:18:22;102162.53;;;5.71;57.95
20825;BME280;10573;50.936;6.978;2023-03-03T11:23:57;102163.25;;;5.58;59.00
20825;BME280;10573;50.936;6.978;2023-03-03T11:31:51;102156.09;;;5.20;59.53
20825;BME280;10573;50.936;6.978;2023-03-03T11:36:52;102156.84;;;4.85;60.74
20825;BME280;10573;50.936;6.978;2023-03-03T11:39:22;102155.53;;;4.56;61.03
20825;BME280;10573;50.936;6.978;2023-03-03T11:44:34;102153.38;;;5.57;59.20
20825;BME280;10573;50.936;6.978;2023-03-03T11:47:08;102146.75;;;5.97;57.80
20825;BME280;10573;50.936;6.978;2023-03-03T11:49:39;102155.22;;;5.74;57.58
20825;BME280;10573;50.936;6.978;2023-03-03T11:55:20;102142.53;;;6.60;55.19
20825;BME280;10573;50.936;6.978;2023-03-03T11:58:11;102140.75;;;6.10;56.38
20825;BME280;10573;50.936;6.978;2023-03-03T12:00:55;102135.03;;;6.32;56.16
20825;BME280;10573;50.936;6.978;2023-03-03T12:03:33;102125.59;;;7.04;54.32
20825;BME280;10573;50.936;6.978;2023-03-03T12:06:11;102123.50;;;6.78;54.05
20825;BME280;10573;50.936;6.978;2023-03-03T12:17:20;102104.72;;;8.27;52.65
20825;BME280;10573;50.936;6.978;2023-03-03T12:20:02;102104.63;;;8.28;50.80
20825;BME280;10573;50.936;6.978;2023-03-03T12:25:45;102102.50;;;6.49;55.29
20825;BME280;10573;50.936;6.978;2023-03-03T12:28:21;102099.97;;;6.94;54.04
20825;BME280;10573;50.936;6.978;2023-03-03T12:36:50;102092.75;;;7.71;52.03
20825;BME280;10573;50.936;6.978;2023-03-03T12:39:31;102092.41;;;8.06;51.25
20825;BME280;10573;50.936;6.978;2023-03-03T12:42:19;102090.53;;;7.17;52.32
20825;BME280;10573;50.936;6.978;2023-03-03T12:47:46;102088.09;;;7.73;52.45
20825;BME280;10573;50.936;6.978;2023-03-03T12:53:19;102087.34;;;7.86;52.40
20825;BME280;10573;50.936;6.978;2023-03-03T12:55:51;102091.94;;;7.69;52.31
20825;BME280;10573;50.936;6.978;2023-03-03T13:01:16;102080.16;;;7.85;52.90
20825;BME280;10573;50.936;6.978;2023-03-03T13:06:31;102087.34;;;8.15;51.07
20825;BME280;10573;50.936;6.978;2023-03-03T13:15:02;102086.50;;;8.72;50.35
20825;BME280;10573;50.936;6.978;2023-03-03T13:17:54;102072.34;;;10.00;46.99
20825;BME280;10573;50.936;6.978;2023-03-03T13:20:38;102072.13;;;10.16;45.43
20825;BME280;10573;50.936;6.978;2023-03-03T13:23:29;102080.19;;;9.26;47.40
20825;BME280;10573;50.936;6.978;2023-03-03T13:26:10;102076.28;;;9.30;47.24
20825;BME280;10573;50.936;6.978;2023-03-03T13:31:20;102076.69;;;8.69;49.29
20825;BME280;10573;50.936;6.978;2023-03-03T13:33:53;102084.25;;;8.79;49.13
20825;BME280;10573;50.936;6.978;2023-03-03T13:36:23;102078.19;;;9.15;48.15
20825;BME280;10573;50.936;6.978;2023-03-03T13:38:56;102076.91;;;9.21;47.75
20825;BME280;10573;50.936;6.978;2023-03-03T13:44:03;102072.28;;;8.81;48.58
20825;BME280;10573;50.936;6.978;2023-03-03T13:46:41;102080.41;;;9.63;47.75
20825;BME280;10573;50.936;6.978;2023-03-03T13:49:24;102058.06;;;10.61;45.53
20825;BME280;10573;50.936;6.978;2023-03-03T13:52:07;102062.88;;;10.45;44.93
20825;BME280;10573;50.936;6.978;2023-03-03T13:57:34;102057.75;;;10.01;45.51
20825;BME280;10573;50.936;6.978;2023-03-03T14:06:18;102058.81;;;9.60;45.72
20825;BME280;10573;50.936;6.978;2023-03-03T14:11:51;102059.91;;;10.85;44.00
20825;BME280;10573;50.936;6.978;2023-03-03T14:14:39;102052.09;;;10.30;44.37
20825;BME280;10573;50.936;6.978;2023-03-03T14:17:23;102048.19;;;11.20;42.90
20825;BME280;10573;50.936;6.978;2023-03-03T14:20:02;102042.59;;;11.92;41.94
20825;BME280;10573;50.936;6.978;2023-03-03T14:25:17;102032.88;;;13.12;38.60
20825;BME280;10573;50.936;6.978;2023-03-03T14:30:46;102027.53;;;12.66;38.40
20825;BME280;10573;50.936;6.978;2023-03-03T14:35:49;102019.59;;;13.07;38.51
20825;BME280;10573;50.936;6.978;2023-03-03T14:38:22;102027.16;;;12.59;39.50
20825;BME280;10573;50.936;6.978;2023-03-03T14:40:48;102028.19;;;13.35;38.31
20825;BME280;10573;50.936;6.978;2023-03-03T14:43:36;102017.69;;;13.19;38.63
20825;BME280;10573;50.936;6.978;2023-03-03T14:49:00;102025.22;;;13.26;38.08
20825;BME280;10573;50.936;6.978;2023-03-03T14:54:33;102017.66;;;11.97;40.28
20825;BME280;10573;50.936;6.978;2023-03-03T15:05:19;102022.03;;;11.64;41.60
20825;BME280;10573;50.936;6.978;2023-03-03T15:07:52;102017.34;;;10.21;43.98
20825;BME280;10573;50.936;6.978;2023-03-03T15:10:35;102004.75;;;11.99;41.11
20825;BME280;10573;50.936;6.978;2023-03-03T15:13:33;101995.22;;;12.71;39.86
20825;BME280;10573;50.936;6.978;2023-03-03T15:18:25;101988.56;;;13.18;38.07
20825;BME280;10573;50.936;6.978;2023-03-03T15:21:09;101991.00;;;12.67;39.48
20825;BME280;10573;50.936;6.978;2023-03-03T15:32:27;101994.72;;;12.66;39.68
20825;BME280;10573;50.936;6.978;2023-03-03T15:34:56;102004.44;;;11.91;40.67
20825;BME280;10573;50.936;6.978;2023-03-03T15:42:37;102007.34;;;11.42;42.19
20825;BME280;10573;50.936;6.978;2023-03-03T15:59:14;102016.03;;;9.36;47.64
20825;BME280;10573;50.936;6.978;2023-03-03T16:04:19;102018.91;;;9.61;46.45
20825;BME280;10573;50.936;6.978;2023-03-03T16:06:55;102007.56;;;9.80;45.82
20825;BME280;10573;50.936;6.978;2023-03-03T16:12:33;102016.78;;;9.38;46.73
20825;BME280;10573;50.936;6.978;2023-03-03T16:20:48;102020.97;;;8.77;48.89
20825;BME280;10573;50.936;6.978;2023-03-03T16:32:04;102025.91;;;8.14;50.11
20825;BME280;10573;50.936;6.978;2023-03-03T16:34:38;102021.06;;;8.04;50.75
20825;BME280;10573;50.936;6.978;2023-03-03T16:37:21;102031.53;;;7.82;52.19
20825;BME280;10573;50.936;6.978;2023-03-03T16:40:14;102034.34;;;7.35;52.57
20825;BME280;10573;50.936;6.978;2023-03-03T16:42:42;102034.25;;;7.07;53.57
20825;BME280;10573;50.936;6.978;2023-03-03T16:47:58;102052.25;;;7.08;54.46
20825;BME280;10573;50.936;6.978;2023-03-03T16:53:47;102055.03;;;7.06;53.95